createdAt,value
2018-03-04T00:00:01.201Z,115.93
2018-03-04T00:02:29.068Z,126.30
2018-03-04T00:04:56.938Z,114.95
2018-03-04T00:07:24.803Z,110.55
2018-03-04T00:09:52.672Z,105.22
2018-03-04T00:12:20.538Z,115.70
2018-03-04T00:14:48.405Z,116.20
2018-03-04T00:17:16.275Z,117.43
2018-03-04T00:19:44.140Z,103.82
2018-03-04T00:22:12.008Z,117.95
2018-03-04T00:24:39.878Z,109.35
2018-03-04T00:27:07.742Z,113.12
2018-03-04T00:29:35.609Z,105.10
2018-03-04T00:32:03.477Z,101.72
2018-03-04T00:34:31.344Z,105.80
2018-03-04T00:36:59.211Z,104.93
2018-03-04T00:39:27.077Z,108.87
2018-03-04T00:41:54.947Z,110.45
2018-03-04T00:44:22.812Z,105.22
2018-03-04T00:46:50.680Z,118.13
2018-03-04T00:49:18.444Z,111.35
2018-03-04T00:51:46.313Z,107.75
2018-03-04T00:54:14.181Z,116.47
2018-03-04T00:56:42.047Z,102.57
2018-03-04T00:59:09.915Z,100.70
2018-03-04T01:01:37.782Z,117.15
2018-03-04T01:04:05.648Z,105.53
2018-03-04T01:06:33.517Z,104.72
2018-03-04T01:09:01.385Z,106.57
2018-03-04T01:11:29.252Z,118.37
2018-03-04T01:13:57.118Z,132.65
2018-03-04T01:16:24.918Z,126.57
2018-03-04T01:18:53.570Z,111.03
2018-03-04T01:21:21.337Z,124.47
2018-03-04T01:23:49.202Z,113.97
2018-03-04T01:26:17.069Z,107.93
2018-03-04T01:28:44.937Z,120.72
2018-03-04T01:31:12.804Z,112.82
2018-03-04T01:33:40.681Z,110.12
2018-03-04T01:36:08.539Z,110.55
2018-03-04T01:38:36.409Z,116.72
2018-03-04T01:41:04.274Z,112.00
2018-03-04T01:43:32.139Z,121.47
2018-03-04T01:46:00.008Z,132.93
2018-03-04T01:48:27.876Z,129.32
2018-03-04T01:50:55.743Z,122.72
2018-03-04T01:53:23.616Z,132.95
2018-03-04T01:55:51.478Z,135.50
2018-03-04T01:58:19.344Z,125.07
2018-03-04T02:00:47.211Z,132.27
2018-03-04T02:03:15.080Z,121.93
2018-03-04T02:05:42.947Z,128.87
2018-03-04T02:08:10.815Z,119.37
2018-03-04T02:10:38.681Z,117.30
2018-03-04T02:13:06.548Z,116.78
2018-03-04T02:15:34.416Z,112.75
2018-03-04T02:18:02.283Z,103.85
2018-03-04T02:20:30.150Z,114.88
2018-03-04T02:22:58.018Z,116.37
2018-03-04T02:25:25.885Z,117.07
2018-03-04T02:27:53.757Z,119.32
2018-03-04T02:30:21.620Z,116.30
2018-03-04T02:32:49.487Z,108.97
2018-03-04T02:35:17.354Z,104.20
2018-03-04T02:37:45.222Z,100.00
2018-03-04T02:40:13.090Z,115.28
2018-03-04T02:42:40.956Z,111.10
2018-03-04T02:45:08.824Z,114.65
2018-03-04T02:47:36.692Z,110.82
2018-03-04T02:50:04.559Z,117.85
2018-03-04T02:52:32.430Z,113.37
2018-03-04T02:55:00.293Z,102.93
2018-03-04T02:57:28.161Z,98.68
2018-03-04T02:59:56.027Z,116.15
2018-03-04T03:02:23.897Z,112.25
2018-03-04T03:04:51.764Z,108.85
2018-03-04T03:07:19.629Z,112.43
2018-03-04T03:09:47.497Z,105.47
2018-03-04T03:12:15.365Z,112.88
2018-03-04T03:14:44.050Z,108.80
2018-03-04T03:17:12.021Z,111.28
2018-03-04T03:19:39.891Z,132.60
2018-03-04T03:22:07.758Z,132.93
2018-03-04T03:24:35.622Z,121.93
2018-03-04T03:27:03.489Z,127.90
2018-03-04T03:29:31.357Z,111.72
2018-03-04T03:31:59.224Z,122.40
2018-03-04T03:34:27.091Z,117.87
2018-03-04T03:36:54.959Z,116.30
2018-03-04T03:39:22.827Z,127.10
2018-03-04T03:41:50.694Z,115.97
2018-03-04T03:44:18.560Z,128.32
2018-03-04T03:46:46.428Z,129.55
2018-03-04T03:49:14.296Z,135.10
2018-03-04T03:51:42.162Z,160.37
2018-03-04T03:54:10.027Z,146.73
2018-03-04T03:56:37.897Z,142.65
2018-03-04T03:59:05.768Z,161.18
2018-03-04T04:01:33.631Z,139.10
2018-03-04T04:04:01.499Z,126.70
2018-03-04T04:06:29.372Z,138.85
2018-03-04T04:08:57.438Z,140.20
2018-03-04T04:11:25.239Z,130.75
2018-03-04T04:13:53.890Z,116.15
2018-03-04T04:16:21.758Z,122.72
2018-03-04T04:18:49.625Z,141.32
2018-03-04T04:21:17.493Z,119.50
2018-03-04T04:23:45.360Z,123.47
2018-03-04T04:26:13.227Z,140.82
2018-03-04T04:28:41.094Z,127.43
2018-03-04T04:31:08.961Z,123.70
2018-03-04T04:33:36.828Z,110.82
2018-03-04T04:36:04.696Z,118.30
2018-03-04T04:38:32.563Z,112.05
2018-03-04T04:41:00.431Z,119.25
2018-03-04T04:43:28.299Z,110.25
2018-03-04T04:45:56.168Z,130.00
2018-03-04T04:48:24.039Z,119.65
2018-03-04T04:50:51.903Z,115.00
2018-03-04T04:53:19.771Z,115.35
2018-03-04T04:55:47.638Z,131.00
2018-03-04T04:58:15.504Z,121.32
2018-03-04T05:00:43.375Z,122.20
2018-03-04T05:03:11.240Z,129.90
2018-03-04T05:05:39.106Z,129.85
2018-03-04T05:08:06.974Z,127.18
2018-03-04T05:10:34.859Z,126.47
2018-03-04T05:13:02.708Z,129.45
2018-03-04T05:15:30.574Z,112.57
2018-03-04T05:17:58.443Z,118.53
2018-03-04T05:20:26.312Z,120.30
2018-03-04T05:22:54.184Z,105.90
2018-03-04T05:25:22.760Z,115.72
2018-03-04T05:27:50.635Z,111.93
2018-03-04T05:30:18.494Z,109.05
2018-03-04T05:32:46.361Z,117.40
2018-03-04T05:35:14.230Z,110.90
2018-03-04T05:37:42.096Z,107.82
2018-03-04T05:40:09.963Z,125.93
2018-03-04T05:42:37.831Z,107.95
2018-03-04T05:45:05.698Z,111.72
2018-03-04T05:47:33.565Z,122.00
2018-03-04T05:50:01.433Z,117.95
2018-03-04T05:52:29.301Z,114.12
2018-03-04T05:54:57.166Z,118.82
2018-03-04T05:57:25.243Z,124.55
2018-03-04T05:59:53.209Z,130.12
2018-03-04T06:02:21.077Z,140.02
2018-03-04T06:04:48.944Z,123.68
2018-03-04T06:07:16.811Z,127.15
2018-03-04T06:09:44.678Z,108.87
2018-03-04T06:12:12.546Z,121.55
2018-03-04T06:14:40.412Z,121.62
2018-03-04T06:17:08.279Z,115.45
2018-03-04T06:19:36.147Z,116.22
2018-03-04T06:22:04.015Z,111.65
2018-03-04T06:24:31.882Z,114.62
2018-03-04T06:26:59.753Z,102.45
2018-03-04T06:29:27.924Z,103.75
2018-03-04T06:31:55.791Z,116.37
2018-03-04T06:34:23.664Z,125.38
2018-03-04T06:36:52.353Z,124.07
2018-03-04T06:39:20.213Z,122.68
2018-03-04T06:41:48.084Z,131.60
2018-03-04T06:44:15.947Z,109.57
2018-03-04T06:46:43.817Z,119.90
2018-03-04T06:49:11.681Z,106.47
2018-03-04T06:51:39.406Z,116.40
2018-03-04T06:54:07.158Z,118.50
2018-03-04T06:56:35.386Z,113.35
2018-03-04T06:59:03.253Z,110.93
2018-03-04T07:01:31.120Z,110.63
2018-03-04T07:03:58.990Z,127.70
2018-03-04T07:06:26.854Z,116.70
2018-03-04T07:08:54.722Z,123.05
2018-03-04T07:11:23.060Z,117.47
2018-03-04T07:13:50.868Z,118.35
2018-03-04T07:16:18.844Z,115.95
2018-03-04T07:18:46.712Z,129.68
2018-03-04T07:21:14.571Z,125.38
2018-03-04T07:23:42.438Z,126.15
2018-03-04T07:26:10.305Z,114.43
2018-03-04T07:28:38.173Z,115.72
2018-03-04T07:31:06.040Z,127.32
2018-03-04T07:33:33.909Z,114.40
2018-03-04T07:36:01.775Z,112.18
2018-03-04T07:38:29.642Z,117.25
2018-03-04T07:40:57.369Z,109.20
2018-03-04T07:43:25.098Z,120.05
2018-03-04T07:45:53.788Z,117.10
2018-03-04T07:48:22.273Z,104.10
2018-03-04T07:50:50.765Z,119.15
2018-03-04T07:53:19.249Z,111.68
2018-03-04T07:55:47.734Z,119.95
2018-03-04T07:58:15.550Z,115.55
2018-03-04T08:00:43.418Z,117.72
2018-03-04T08:03:11.286Z,116.90
2018-03-04T08:05:39.152Z,112.90
2018-03-04T08:08:07.020Z,115.72
2018-03-04T08:10:34.896Z,117.37
2018-03-04T08:13:02.614Z,110.35
2018-03-04T08:15:30.345Z,107.30
2018-03-04T08:17:59.000Z,119.10
2018-03-04T08:20:26.869Z,117.15
2018-03-04T08:22:54.736Z,106.15
2018-03-04T08:25:36.324Z,116.68
2018-03-04T08:28:16.173Z,111.35
2018-03-04T08:30:44.040Z,105.50
2018-03-04T08:33:11.909Z,125.50
2018-03-04T08:35:39.782Z,129.38
2018-03-04T08:38:07.641Z,124.93
2018-03-04T08:40:35.510Z,117.57
2018-03-04T08:43:03.376Z,108.07
2018-03-04T08:45:31.299Z,120.68
2018-03-04T08:47:59.931Z,122.75
2018-03-04T08:50:28.514Z,126.38
2018-03-04T08:52:56.382Z,124.82
2018-03-04T08:55:24.249Z,113.10
2018-03-04T08:57:52.116Z,128.82
2018-03-04T09:00:19.985Z,127.00
2018-03-04T09:02:47.852Z,127.15
2018-03-04T09:05:15.719Z,120.80
2018-03-04T09:07:43.586Z,117.15
2018-03-04T09:10:11.454Z,141.15
2018-03-04T09:12:39.320Z,140.35
2018-03-04T09:15:07.189Z,124.03
2018-03-04T09:17:35.055Z,122.72
2018-03-04T09:20:02.923Z,136.48
2018-03-04T09:22:30.799Z,131.00
2018-03-04T09:24:58.657Z,130.57
2018-03-04T09:27:26.517Z,125.68
2018-03-04T09:29:54.392Z,135.45
2018-03-04T09:32:22.259Z,131.07
2018-03-04T09:34:50.125Z,119.05
2018-03-04T09:37:17.994Z,132.00
2018-03-04T09:39:45.860Z,135.57
2018-03-04T09:42:13.728Z,141.45
2018-03-04T09:44:41.595Z,129.70
2018-03-04T09:47:09.463Z,133.48
2018-03-04T09:49:37.330Z,136.85
2018-03-04T09:52:05.197Z,134.90
2018-03-04T09:54:33.066Z,137.77
2018-03-04T09:57:00.932Z,128.68
2018-03-04T09:59:28.800Z,139.80
2018-03-04T10:01:56.669Z,137.00
2018-03-04T10:04:24.466Z,116.90
2018-03-04T10:06:53.124Z,127.47
2018-03-04T10:09:20.986Z,118.97
2018-03-04T10:11:48.853Z,106.60
2018-03-04T10:14:16.720Z,126.72
2018-03-04T10:16:44.582Z,122.07
2018-03-04T10:19:12.309Z,118.35
2018-03-04T10:21:40.118Z,121.15
2018-03-04T10:24:07.985Z,111.72
2018-03-04T10:26:35.733Z,111.45
2018-03-04T10:29:03.465Z,109.70
2018-03-04T10:31:31.214Z,107.37
2018-03-04T10:33:59.045Z,104.07
2018-03-04T10:36:26.911Z,99.05
2018-03-04T10:38:54.779Z,103.00
2018-03-04T10:41:22.538Z,96.05
2018-03-04T10:43:50.260Z,108.63
2018-03-04T10:46:18.073Z,104.10
2018-03-04T10:48:45.797Z,90.70
2018-03-04T10:51:13.603Z,95.32
2018-03-04T10:53:41.471Z,81.93
2018-03-04T10:56:09.193Z,100.07
2018-03-04T10:58:36.922Z,90.18
2018-03-04T11:01:10.549Z,89.45
2018-03-04T11:03:38.306Z,90.50
2018-03-04T11:06:06.826Z,95.05
2018-03-04T11:08:34.716Z,85.75
2018-03-04T11:11:02.583Z,83.45
2018-03-04T11:13:30.450Z,92.72
2018-03-04T11:15:58.164Z,86.03
2018-03-04T11:18:26.648Z,84.97
2018-03-04T11:20:55.283Z,80.18
2018-03-04T11:23:23.047Z,80.60
2018-03-04T11:25:50.913Z,88.53
2018-03-04T11:28:18.780Z,90.57
2018-03-04T11:30:46.648Z,84.15
2018-03-04T11:33:14.516Z,86.12
2018-03-04T11:35:42.383Z,87.68
2018-03-04T11:38:10.251Z,87.70
2018-03-04T11:40:38.118Z,85.25
2018-03-04T11:43:05.989Z,91.07
2018-03-04T11:45:33.854Z,80.25
2018-03-04T11:48:01.720Z,85.07
2018-03-04T11:50:29.587Z,78.15
2018-03-04T11:52:57.455Z,82.30
2018-03-04T11:55:25.322Z,75.00
2018-03-04T11:57:53.055Z,82.50
2018-03-04T12:00:20.851Z,87.90
2018-03-04T12:02:48.745Z,87.05
2018-03-04T12:05:16.586Z,84.03
2018-03-04T12:07:44.453Z,85.38
2018-03-04T12:10:12.320Z,79.60
2018-03-04T12:12:40.187Z,75.22
2018-03-04T12:15:08.056Z,75.65
2018-03-04T12:17:35.793Z,71.70
2018-03-04T12:20:03.687Z,71.93
2018-03-04T12:22:31.554Z,73.47
2018-03-04T12:24:59.426Z,71.45
2018-03-04T12:27:27.290Z,70.62
2018-03-04T12:29:55.194Z,68.15
2018-03-04T12:32:23.844Z,68.25
2018-03-04T12:34:51.712Z,73.32
2018-03-04T12:37:19.590Z,69.97
2018-03-04T12:39:47.374Z,66.28
2018-03-04T12:42:15.210Z,54.72
2018-03-04T12:44:43.078Z,51.92
2018-03-04T12:47:10.945Z,53.45
2018-03-04T12:49:38.812Z,47.55
2018-03-04T12:52:06.683Z,49.83
2018-03-04T12:54:34.546Z,44.47
2018-03-04T12:57:02.415Z,41.08
2018-03-04T12:59:30.281Z,45.30
2018-03-04T13:01:58.149Z,51.20
2018-03-04T13:04:25.873Z,42.62
2018-03-04T13:06:53.636Z,61.63
2018-03-04T13:09:21.362Z,66.75
2018-03-04T13:11:49.090Z,48.67
2018-03-04T13:14:16.818Z,51.58
2018-03-04T13:16:45.378Z,59.63
2018-03-04T13:19:13.220Z,66.45
2018-03-04T13:21:41.088Z,71.62
2018-03-04T13:24:08.813Z,65.18
2018-03-04T13:26:36.537Z,50.70
2018-03-04T13:29:04.382Z,47.38
2018-03-04T13:31:32.249Z,47.72
2018-03-04T13:34:00.117Z,62.55
2018-03-04T13:36:27.985Z,58.40
2018-03-04T13:38:55.721Z,57.90
2018-03-04T13:41:23.514Z,45.70
2018-03-04T13:43:51.381Z,35.42
2018-03-04T13:46:19.268Z,33.35
2018-03-04T13:48:47.014Z,40.22
2018-03-04T13:51:15.802Z,36.03
2018-03-04T13:53:43.567Z,38.90
2018-03-04T13:56:11.435Z,40.28
2018-03-04T13:58:39.299Z,37.95
2018-03-04T14:01:07.169Z,39.03
2018-03-04T14:03:34.891Z,43.63
2018-03-04T14:06:02.605Z,40.75
2018-03-04T14:08:30.331Z,40.08
2018-03-04T14:10:58.130Z,42.90
2018-03-04T14:13:25.861Z,47.35
2018-03-04T14:15:53.657Z,46.97
2018-03-04T14:18:21.385Z,49.97
2018-03-04T14:20:49.102Z,52.17
2018-03-04T14:23:16.849Z,60.05
2018-03-04T14:25:44.716Z,68.78
2018-03-04T14:28:12.583Z,52.25
2018-03-04T14:30:40.383Z,59.90
2018-03-04T14:33:08.881Z,67.43
2018-03-04T14:35:37.517Z,66.03
2018-03-04T14:38:05.384Z,63.75
2018-03-04T14:40:35.814Z,78.10
2018-03-04T14:43:03.590Z,66.65
2018-03-04T14:45:31.346Z,75.50
2018-03-04T14:47:59.209Z,76.35
2018-03-04T14:50:27.076Z,66.07
2018-03-04T14:52:54.959Z,72.72
2018-03-04T14:55:23.470Z,64.10
2018-03-04T14:57:51.958Z,73.60
2018-03-04T15:00:20.593Z,72.03
2018-03-04T15:02:48.460Z,69.07
2018-03-04T15:05:16.181Z,70.93
2018-03-04T15:07:45.462Z,77.45
2018-03-04T15:10:13.941Z,68.32
2018-03-04T15:12:42.494Z,63.90
2018-03-04T15:15:10.364Z,67.40
2018-03-04T15:17:38.432Z,63.38
2018-03-04T15:20:07.014Z,74.53
2018-03-04T15:22:35.812Z,65.07
2018-03-04T15:25:03.671Z,64.40
2018-03-04T15:27:31.537Z,63.95
2018-03-04T15:29:59.409Z,58.70
2018-03-04T15:32:27.272Z,58.97
2018-03-04T15:34:55.078Z,57.55
2018-03-04T15:37:23.723Z,64.40
2018-03-04T15:39:51.591Z,60.70
2018-03-04T15:42:19.321Z,57.38
2018-03-04T15:44:47.939Z,62.72
2018-03-04T15:47:15.809Z,52.88
2018-03-04T15:49:43.561Z,61.10
2018-03-04T15:52:11.379Z,61.58
2018-03-04T15:54:40.025Z,63.60
2018-03-04T15:57:07.891Z,51.53
2018-03-04T15:59:35.758Z,58.95
2018-03-04T16:02:03.625Z,50.90
2018-03-04T16:04:31.493Z,57.47
2018-03-04T16:06:59.359Z,51.00
2018-03-04T16:09:27.231Z,54.97
2018-03-04T16:11:55.095Z,47.30
2018-03-04T16:14:22.962Z,43.50
2018-03-04T16:16:50.835Z,46.85
2018-03-04T16:19:18.698Z,42.00
2018-03-04T16:21:46.563Z,40.40
2018-03-04T16:24:14.431Z,54.83
2018-03-04T16:26:42.302Z,40.80
2018-03-04T16:29:10.169Z,42.15
2018-03-04T16:31:38.033Z,43.25
2018-03-04T16:34:05.901Z,45.80
2018-03-04T16:36:33.767Z,44.28
2018-03-04T16:39:01.635Z,35.88
2018-03-04T16:41:29.693Z,40.30
2018-03-04T16:43:57.573Z,38.92
2018-03-04T16:46:25.473Z,34.63
2018-03-04T16:48:54.128Z,37.95
2018-03-04T16:51:22.274Z,37.85
2018-03-04T16:53:50.072Z,40.67
2018-03-04T16:56:17.935Z,39.80
2018-03-04T16:58:45.803Z,38.03
2018-03-04T17:01:13.674Z,33.38
2018-03-04T17:03:41.536Z,33.33
2018-03-04T17:06:09.405Z,31.58
2018-03-04T17:08:37.271Z,27.92
2018-03-04T17:11:05.139Z,33.13
2018-03-04T17:13:33.006Z,26.98
2018-03-04T17:16:07.162Z,33.97
2018-03-04T17:18:35.704Z,30.20
2018-03-04T17:21:03.572Z,28.17
2018-03-04T17:23:31.444Z,32.55
2018-03-04T17:25:59.305Z,29.55
2018-03-04T17:28:27.173Z,31.80
2018-03-04T17:30:55.040Z,31.70
2018-03-04T17:33:22.909Z,25.02
2018-03-04T17:35:50.775Z,26.40
2018-03-04T17:38:18.641Z,23.73
2018-03-04T17:40:46.509Z,22.33
2018-03-04T17:43:14.378Z,25.27
2018-03-04T17:45:42.244Z,23.90
2018-03-04T17:48:10.112Z,20.42
2018-03-04T17:50:37.922Z,25.20
2018-03-04T17:53:06.563Z,24.48
2018-03-04T17:55:34.430Z,23.35
2018-03-04T17:58:02.197Z,25.70
2018-03-04T18:00:30.063Z,25.77
2018-03-04T18:02:57.931Z,24.30
2018-03-04T18:05:25.797Z,31.10
2018-03-04T18:07:53.665Z,23.73
2018-03-04T18:10:21.540Z,29.20
2018-03-04T18:12:49.400Z,25.52
2018-03-04T18:15:17.268Z,22.40
2018-03-04T18:17:45.135Z,24.45
2018-03-04T18:20:13.000Z,21.27
2018-03-04T18:22:40.868Z,24.30
2018-03-04T18:25:08.740Z,22.87
2018-03-04T18:27:36.603Z,21.30
2018-03-04T18:30:04.470Z,26.48
2018-03-04T18:32:32.338Z,22.58
2018-03-04T18:35:00.205Z,23.60
2018-03-04T18:37:28.072Z,19.77
2018-03-04T18:39:55.940Z,22.00
2018-03-04T18:42:23.807Z,26.15
2018-03-04T18:44:51.675Z,20.95
2018-03-04T18:47:19.542Z,27.20
2018-03-04T18:49:47.409Z,22.65
2018-03-04T18:52:15.276Z,26.45
2018-03-04T18:54:43.143Z,21.25
2018-03-04T18:57:11.011Z,22.33
2018-03-04T18:59:38.878Z,23.38
2018-03-04T19:02:06.745Z,27.20
2018-03-04T19:04:34.614Z,23.52
2018-03-04T19:07:02.483Z,26.35
2018-03-04T19:09:30.347Z,22.90
2018-03-04T19:11:58.215Z,21.05
2018-03-04T19:14:26.083Z,20.55
2018-03-04T19:16:53.950Z,25.75
2018-03-04T19:19:21.817Z,23.65
2018-03-04T19:21:49.685Z,25.08
2018-03-04T19:24:17.552Z,21.67
2018-03-04T19:26:45.419Z,21.95
2018-03-04T19:29:13.286Z,24.95
2018-03-04T19:31:41.154Z,21.80
2018-03-04T19:34:09.026Z,25.77
2018-03-04T19:36:36.889Z,30.50
2018-03-04T19:39:04.755Z,27.15
2018-03-04T19:41:32.623Z,26.30
2018-03-04T19:44:00.490Z,21.70
2018-03-04T19:46:28.358Z,21.77
2018-03-04T19:48:56.226Z,19.95
2018-03-04T19:51:24.093Z,22.73
2018-03-04T19:53:51.962Z,21.30
2018-03-04T19:56:19.827Z,25.85
2018-03-04T19:58:47.745Z,25.20
2018-03-04T20:01:16.383Z,23.17
2018-03-04T20:03:44.248Z,21.92
2018-03-04T20:06:12.116Z,28.38
2018-03-04T20:08:39.983Z,20.48
2018-03-04T20:11:07.850Z,24.00
2018-03-04T20:13:35.718Z,19.48
2018-03-04T20:16:03.586Z,25.42
2018-03-04T20:18:31.453Z,20.67
2018-03-04T20:20:59.217Z,25.17
2018-03-04T20:23:27.104Z,27.13
2018-03-04T20:25:54.952Z,25.23
2018-03-04T20:28:22.820Z,27.45
2018-03-04T20:30:50.687Z,22.35
2018-03-04T20:33:18.553Z,25.15
2018-03-04T20:35:46.423Z,24.87
2018-03-04T20:38:14.289Z,32.05
2018-03-04T20:40:42.157Z,24.63
2018-03-04T20:43:10.024Z,31.50
2018-03-04T20:45:37.890Z,24.83
2018-03-04T20:48:05.758Z,22.35
2018-03-04T20:50:33.627Z,25.50
2018-03-04T20:53:01.496Z,22.27
2018-03-04T20:55:29.362Z,27.73
2018-03-04T20:57:57.230Z,31.98
2018-03-04T21:00:25.035Z,26.37
2018-03-04T21:02:53.679Z,25.60
2018-03-04T21:05:21.546Z,26.30
2018-03-04T21:07:49.413Z,18.60
2018-03-04T21:10:17.281Z,18.58
2018-03-04T21:12:45.149Z,24.73
2018-03-04T21:15:13.016Z,21.73
2018-03-04T21:17:40.884Z,21.48
2018-03-04T21:20:08.749Z,25.02
2018-03-04T21:22:36.617Z,27.05
2018-03-04T21:25:04.484Z,21.65
2018-03-04T21:27:32.352Z,23.50
2018-03-04T21:30:00.220Z,24.15
2018-03-04T21:32:28.086Z,24.52
2018-03-04T21:34:55.955Z,25.70
2018-03-04T21:37:23.821Z,26.08
2018-03-04T21:39:51.688Z,23.52
2018-03-04T21:42:19.555Z,28.80
2018-03-04T21:44:47.423Z,23.75
2018-03-04T21:47:15.290Z,24.75
2018-03-04T21:49:43.160Z,26.98
2018-03-04T21:52:11.025Z,24.52
2018-03-04T21:54:38.892Z,29.05
2018-03-04T21:57:06.760Z,28.55
2018-03-04T21:59:34.628Z,21.73
2018-03-04T22:02:02.494Z,34.17
2018-03-04T22:04:30.360Z,33.92
2018-03-04T22:06:58.228Z,31.23
2018-03-04T22:09:26.096Z,36.92
2018-03-04T22:11:54.079Z,33.97
2018-03-04T22:14:22.652Z,34.00
2018-03-04T22:16:50.517Z,36.75
2018-03-04T22:19:18.388Z,33.60
2018-03-04T22:21:46.251Z,31.75
2018-03-04T22:24:14.123Z,32.28
2018-03-04T22:26:41.986Z,29.98
2018-03-04T22:29:09.854Z,32.15
2018-03-04T22:31:37.721Z,39.08
2018-03-04T22:34:05.589Z,32.83
2018-03-04T22:36:33.458Z,33.03
2018-03-04T22:39:01.324Z,29.50
2018-03-04T22:41:29.190Z,28.75
2018-03-04T22:43:57.057Z,27.35
2018-03-04T22:46:24.925Z,28.27
2018-03-04T22:48:52.793Z,24.30
2018-03-04T22:51:20.659Z,30.05
2018-03-04T22:53:48.526Z,23.80
2018-03-04T22:56:16.394Z,30.77
2018-03-04T22:58:44.261Z,26.20
2018-03-04T23:01:12.132Z,22.95
2018-03-04T23:03:39.996Z,23.85
2018-03-04T23:06:07.864Z,30.00
2018-03-04T23:08:35.731Z,24.35
2018-03-04T23:11:03.598Z,19.80
2018-03-04T23:13:31.465Z,22.48
2018-03-04T23:15:59.334Z,21.27
2018-03-04T23:18:27.200Z,21.52
2018-03-04T23:20:55.068Z,16.45
2018-03-04T23:23:22.866Z,20.48
2018-03-04T23:25:51.519Z,18.87
2018-03-04T23:28:19.387Z,21.95
2018-03-04T23:30:47.253Z,18.20
2018-03-04T23:33:15.122Z,23.73
2018-03-04T23:35:42.988Z,16.85
2018-03-04T23:38:10.855Z,15.75
2018-03-04T23:40:39.542Z,16.42
2018-03-04T23:43:07.409Z,17.00
2018-03-04T23:45:35.276Z,14.85
2018-03-04T23:48:03.145Z,16.30
2018-03-04T23:50:31.011Z,16.17
2018-03-04T23:52:58.879Z,18.62
2018-03-04T23:55:26.746Z,17.80
2018-03-04T23:57:54.613Z,16.98
